Terminal Aerodrome Forecast
Issued by NWS

Current Version | Previous Version | Text Only | Print | Product List | Glossary On
Versions: 1 2 3 4 5 6 7 8 9 10 11 12 13 14 15 16 17 18 19 20 21 22 23 24 25 26 27 28 29 30 31 32 33 34
000 FTUS41 KBOX 020546 TAFACK TAF KACK 020546Z 0206/0306 24006KT 1/2SM FG BKN002 FM021200 22008KT 2SM BR BKN003 FM021500 22011KT 6SM BR SCT003 FM022000 22011KT 6SM BR SCT250 FM022200 22010KT 1/2SM FG SCT250=

USA.gov is the U.S. government's official web portal to all federal, state and local government web resources and services.